sensor_id;sensor_type;location;lat;lon;timestamp;P1;durP1;ratioP1;P2;durP2;ratioP2
10343;SDS011;5217;43.960;10.954;2023-04-08T00:00:04;5.90;;;5.40;;
10343;SDS011;5217;43.960;10.954;2023-04-08T00:02:34;5.10;;;4.70;;
10343;SDS011;5217;43.960;10.954;2023-04-08T00:05:03;4.17;;;3.77;;
10343;SDS011;5217;43.960;10.954;2023-04-08T00:07:31;3.50;;;3.20;;
10343;SDS011;5217;43.960;10.954;2023-04-08T00:10:00;2.83;;;2.63;;
10343;SDS011;5217;43.960;10.954;2023-04-08T00:12:28;2.97;;;2.40;;
10343;SDS011;5217;43.960;10.954;2023-04-08T00:14:58;2.50;;;2.30;;
10343;SDS011;5217;43.960;10.954;2023-04-08T00:17:27;2.53;;;2.33;;
10343;SDS011;5217;43.960;10.954;2023-04-08T00:19:55;2.73;;;2.53;;
10343;SDS011;5217;43.960;10.954;2023-04-08T00:22:23;2.83;;;2.63;;
10343;SDS011;5217;43.960;10.954;2023-04-08T00:24:52;3.10;;;2.80;;
10343;SDS011;5217;43.960;10.954;2023-04-08T00:27:21;3.23;;;2.93;;
10343;SDS011;5217;43.960;10.954;2023-04-08T00:29:50;3.40;;;3.10;;
10343;SDS011;5217;43.960;10.954;2023-04-08T00:32:20;3.10;;;2.90;;
10343;SDS011;5217;43.960;10.954;2023-04-08T00:34:48;2.80;;;2.60;;
10343;SDS011;5217;43.960;10.954;2023-04-08T00:37:17;2.53;;;2.33;;
10343;SDS011;5217;43.960;10.954;2023-04-08T00:39:46;3.27;;;2.40;;
10343;SDS011;5217;43.960;10.954;2023-04-08T00:42:15;2.73;;;2.53;;
10343;SDS011;5217;43.960;10.954;2023-04-08T00:44:43;3.73;;;3.40;;
10343;SDS011;5217;43.960;10.954;2023-04-08T00:47:12;4.10;;;3.50;;
10343;SDS011;5217;43.960;10.954;2023-04-08T00:49:42;4.27;;;3.87;;
10343;SDS011;5217;43.960;10.954;2023-04-08T00:52:12;3.83;;;3.53;;
10343;SDS011;5217;43.960;10.954;2023-04-08T00:54:40;4.47;;;4.07;;
10343;SDS011;5217;43.960;10.954;2023-04-08T00:57:09;4.30;;;4.00;;
10343;SDS011;5217;43.960;10.954;2023-04-08T00:59:37;4.77;;;4.33;;
10343;SDS011;5217;43.960;10.954;2023-04-08T01:02:08;4.43;;;4.03;;
10343;SDS011;5217;43.960;10.954;2023-04-08T01:04:46;4.37;;;3.97;;
10343;SDS011;5217;43.960;10.954;2023-04-08T01:07:21;4.03;;;3.67;;
10343;SDS011;5217;43.960;10.954;2023-04-08T01:09:54;4.20;;;3.90;;
10343;SDS011;5217;43.960;10.954;2023-04-08T01:12:24;4.10;;;3.70;;
10343;SDS011;5217;43.960;10.954;2023-04-08T01:14:55;4.10;;;3.70;;
10343;SDS011;5217;43.960;10.954;2023-04-08T01:17:27;4.23;;;3.83;;
10343;SDS011;5217;43.960;10.954;2023-04-08T01:20:00;4.13;;;3.80;;
10343;SDS011;5217;43.960;10.954;2023-04-08T01:22:33;4.17;;;3.77;;
10343;SDS011;5217;43.960;10.954;2023-04-08T01:25:22;3.93;;;3.63;;
10343;SDS011;5217;43.960;10.954;2023-04-08T01:27:55;4.37;;;3.97;;
10343;SDS011;5217;43.960;10.954;2023-04-08T01:30:25;3.83;;;3.53;;
10343;SDS011;5217;43.960;10.954;2023-04-08T01:32:56;4.30;;;3.90;;
10343;SDS011;5217;43.960;10.954;2023-04-08T01:35:26;4.50;;;4.10;;
10343;SDS011;5217;43.960;10.954;2023-04-08T01:37:56;4.57;;;4.27;;
10343;SDS011;5217;43.960;10.954;2023-04-08T01:40:26;4.83;;;4.40;;
10343;SDS011;5217;43.960;10.954;2023-04-08T01:42:56;4.30;;;3.90;;
10343;SDS011;5217;43.960;10.954;2023-04-08T01:45:25;4.60;;;4.20;;
10343;SDS011;5217;43.960;10.954;2023-04-08T01:47:54;4.80;;;4.50;;
10343;SDS011;5217;43.960;10.954;2023-04-08T01:50:24;4.70;;;4.20;;
10343;SDS011;5217;43.960;10.954;2023-04-08T01:52:54;4.80;;;4.40;;
10343;SDS011;5217;43.960;10.954;2023-04-08T01:55:25;4.67;;;4.37;;
10343;SDS011;5217;43.960;10.954;2023-04-08T01:57:57;5.00;;;4.50;;
10343;SDS011;5217;43.960;10.954;2023-04-08T02:00:28;4.63;;;4.30;;
10343;SDS011;5217;43.960;10.954;2023-04-08T02:02:57;4.90;;;4.50;;
10343;SDS011;5217;43.960;10.954;2023-04-08T02:05:27;4.90;;;4.50;;
10343;SDS011;5217;43.960;10.954;2023-04-08T02:07:56;4.80;;;4.40;;
10343;SDS011;5217;43.960;10.954;2023-04-08T02:10:24;4.93;;;4.53;;
10343;SDS011;5217;43.960;10.954;2023-04-08T02:12:52;4.57;;;4.17;;
10343;SDS011;5217;43.960;10.954;2023-04-08T02:15:23;4.77;;;4.37;;
10343;SDS011;5217;43.960;10.954;2023-04-08T02:17:57;5.03;;;4.63;;
10343;SDS011;5217;43.960;10.954;2023-04-08T02:20:33;5.37;;;4.97;;
10343;SDS011;5217;43.960;10.954;2023-04-08T02:23:06;5.53;;;5.07;;
10343;SDS011;5217;43.960;10.954;2023-04-08T02:25:40;5.07;;;4.67;;
10343;SDS011;5217;43.960;10.954;2023-04-08T02:28:11;5.50;;;4.97;;
10343;SDS011;5217;43.960;10.954;2023-04-08T02:30:45;5.27;;;4.73;;
10343;SDS011;5217;43.960;10.954;2023-04-08T02:33:17;5.03;;;4.63;;
10343;SDS011;5217;43.960;10.954;2023-04-08T02:35:47;4.63;;;4.33;;
10343;SDS011;5217;43.960;10.954;2023-04-08T02:38:17;4.70;;;4.30;;
10343;SDS011;5217;43.960;10.954;2023-04-08T02:40:47;4.77;;;4.37;;
10343;SDS011;5217;43.960;10.954;2023-04-08T02:43:17;4.90;;;4.50;;
10343;SDS011;5217;43.960;10.954;2023-04-08T02:45:47;4.97;;;4.57;;
10343;SDS011;5217;43.960;10.954;2023-04-08T02:48:15;4.80;;;4.40;;
10343;SDS011;5217;43.960;10.954;2023-04-08T02:50:43;4.87;;;4.47;;
10343;SDS011;5217;43.960;10.954;2023-04-08T02:53:12;5.23;;;4.83;;
10343;SDS011;5217;43.960;10.954;2023-04-08T02:55:41;4.60;;;4.20;;
10343;SDS011;5217;43.960;10.954;2023-04-08T02:58:09;4.93;;;4.53;;
10343;SDS011;5217;43.960;10.954;2023-04-08T03:00:38;5.20;;;4.70;;
10343;SDS011;5217;43.960;10.954;2023-04-08T03:03:08;5.17;;;4.67;;
10343;SDS011;5217;43.960;10.954;2023-04-08T03:05:36;4.70;;;4.30;;
10343;SDS011;5217;43.960;10.954;2023-04-08T03:08:05;5.67;;;4.97;;
10343;SDS011;5217;43.960;10.954;2023-04-08T03:10:33;4.73;;;4.33;;
10343;SDS011;5217;43.960;10.954;2023-04-08T03:13:02;5.07;;;4.67;;
10343;SDS011;5217;43.960;10.954;2023-04-08T03:15:30;4.90;;;4.50;;
10343;SDS011;5217;43.960;10.954;2023-04-08T03:17:58;4.93;;;4.50;;
10343;SDS011;5217;43.960;10.954;2023-04-08T03:20:28;5.30;;;4.80;;
10343;SDS011;5217;43.960;10.954;2023-04-08T03:22:57;5.50;;;5.10;;
10343;SDS011;5217;43.960;10.954;2023-04-08T03:25:26;4.87;;;4.47;;
10343;SDS011;5217;43.960;10.954;2023-04-08T03:27:54;4.87;;;4.47;;
10343;SDS011;5217;43.960;10.954;2023-04-08T03:30:24;5.17;;;4.77;;
10343;SDS011;5217;43.960;10.954;2023-04-08T03:32:53;4.80;;;4.40;;
10343;SDS011;5217;43.960;10.954;2023-04-08T03:35:22;5.03;;;4.63;;
10343;SDS011;5217;43.960;10.954;2023-04-08T03:37:52;4.80;;;4.40;;
10343;SDS011;5217;43.960;10.954;2023-04-08T03:40:21;4.20;;;3.90;;
10343;SDS011;5217;43.960;10.954;2023-04-08T03:42:49;4.67;;;4.27;;
10343;SDS011;5217;43.960;10.954;2023-04-08T03:45:18;4.40;;;4.10;;
10343;SDS011;5217;43.960;10.954;2023-04-08T03:47:46;4.53;;;4.10;;
10343;SDS011;5217;43.960;10.954;2023-04-08T03:50:15;4.87;;;4.47;;
10343;SDS011;5217;43.960;10.954;2023-04-08T03:52:43;4.40;;;4.10;;
10343;SDS011;5217;43.960;10.954;2023-04-08T03:55:13;4.30;;;4.00;;
10343;SDS011;5217;43.960;10.954;2023-04-08T03:57:42;4.50;;;4.10;;
10343;SDS011;5217;43.960;10.954;2023-04-08T04:00:12;4.07;;;3.73;;
10343;SDS011;5217;43.960;10.954;2023-04-08T04:02:41;4.97;;;4.50;;
10343;SDS011;5217;43.960;10.954;2023-04-08T04:05:09;4.30;;;3.90;;
10343;SDS011;5217;43.960;10.954;2023-04-08T04:07:38;4.60;;;4.20;;
10343;SDS011;5217;43.960;10.954;2023-04-08T04:10:07;4.30;;;4.00;;
10343;SDS011;5217;43.960;10.954;2023-04-08T04:12:37;4.50;;;4.10;;
10343;SDS011;5217;43.960;10.954;2023-04-08T04:15:06;4.57;;;4.17;;
10343;SDS011;5217;43.960;10.954;2023-04-08T04:17:35;4.40;;;4.10;;
10343;SDS011;5217;43.960;10.954;2023-04-08T04:20:04;4.30;;;4.00;;
10343;SDS011;5217;43.960;10.954;2023-04-08T04:22:33;3.80;;;3.50;;
10343;SDS011;5217;43.960;10.954;2023-04-08T04:25:01;4.03;;;3.63;;
10343;SDS011;5217;43.960;10.954;2023-04-08T04:27:30;4.10;;;3.80;;
10343;SDS011;5217;43.960;10.954;2023-04-08T04:30:00;4.13;;;3.73;;
10343;SDS011;5217;43.960;10.954;2023-04-08T04:32:29;4.30;;;3.90;;
10343;SDS011;5217;43.960;10.954;2023-04-08T04:34:57;4.40;;;4.00;;
10343;SDS011;5217;43.960;10.954;2023-04-08T04:37:27;3.97;;;3.67;;
10343;SDS011;5217;43.960;10.954;2023-04-08T04:39:56;3.50;;;3.20;;
10343;SDS011;5217;43.960;10.954;2023-04-08T04:42:24;3.70;;;3.40;;
10343;SDS011;5217;43.960;10.954;2023-04-08T04:44:53;3.87;;;3.57;;
10343;SDS011;5217;43.960;10.954;2023-04-08T04:47:22;4.57;;;4.13;;
10343;SDS011;5217;43.960;10.954;2023-04-08T04:49:51;4.20;;;3.80;;
10343;SDS011;5217;43.960;10.954;2023-04-08T04:52:19;4.20;;;3.90;;
10343;SDS011;5217;43.960;10.954;2023-04-08T04:54:48;4.17;;;3.87;;
10343;SDS011;5217;43.960;10.954;2023-04-08T04:57:16;4.57;;;4.17;;
10343;SDS011;5217;43.960;10.954;2023-04-08T04:59:44;4.87;;;4.43;;
10343;SDS011;5217;43.960;10.954;2023-04-08T05:02:13;5.10;;;4.70;;
10343;SDS011;5217;43.960;10.954;2023-04-08T05:04:43;4.67;;;4.27;;
10343;SDS011;5217;43.960;10.954;2023-04-08T05:07:11;4.70;;;4.30;;
10343;SDS011;5217;43.960;10.954;2023-04-08T05:09:40;6.27;;;5.53;;
10343;SDS011;5217;43.960;10.954;2023-04-08T05:12:08;7.53;;;6.83;;
10343;SDS011;5217;43.960;10.954;2023-04-08T05:14:37;8.10;;;7.30;;
10343;SDS011;5217;43.960;10.954;2023-04-08T05:17:07;8.10;;;7.40;;
10343;SDS011;5217;43.960;10.954;2023-04-08T05:19:36;7.60;;;6.93;;
10343;SDS011;5217;43.960;10.954;2023-04-08T05:22:05;7.40;;;6.73;;
10343;SDS011;5217;43.960;10.954;2023-04-08T05:24:34;5.97;;;5.27;;
10343;SDS011;5217;43.960;10.954;2023-04-08T05:27:02;5.03;;;4.63;;
10343;SDS011;5217;43.960;10.954;2023-04-08T05:29:31;4.80;;;4.40;;
10343;SDS011;5217;43.960;10.954;2023-04-08T05:31:59;3.70;;;3.40;;
10343;SDS011;5217;43.960;10.954;2023-04-08T05:34:29;3.90;;;3.60;;
10343;SDS011;5217;43.960;10.954;2023-04-08T05:36:58;4.10;;;3.77;;
10343;SDS011;5217;43.960;10.954;2023-04-08T05:39:27;8.03;;;5.50;;
10343;SDS011;5217;43.960;10.954;2023-04-08T05:41:56;6.40;;;5.90;;
10343;SDS011;5217;43.960;10.954;2023-04-08T05:44:24;8.30;;;7.60;;
10343;SDS011;5217;43.960;10.954;2023-04-08T05:46:53;8.17;;;7.47;;
10343;SDS011;5217;43.960;10.954;2023-04-08T05:49:23;5.47;;;4.97;;
10343;SDS011;5217;43.960;10.954;2023-04-08T05:51:51;4.40;;;4.10;;
10343;SDS011;5217;43.960;10.954;2023-04-08T05:54:20;3.73;;;3.40;;
10343;SDS011;5217;43.960;10.954;2023-04-08T05:56:50;3.70;;;3.40;;
10343;SDS011;5217;43.960;10.954;2023-04-08T05:59:19;3.93;;;3.53;;
10343;SDS011;5217;43.960;10.954;2023-04-08T06:01:47;3.87;;;3.57;;
10343;SDS011;5217;43.960;10.954;2023-04-08T06:04:16;4.40;;;3.67;;
10343;SDS011;5217;43.960;10.954;2023-04-08T06:06:44;4.30;;;3.97;;
10343;SDS011;5217;43.960;10.954;2023-04-08T06:09:12;5.10;;;4.70;;
10343;SDS011;5217;43.960;10.954;2023-04-08T06:11:41;5.63;;;5.03;;
10343;SDS011;5217;43.960;10.954;2023-04-08T06:14:10;5.57;;;5.07;;
10343;SDS011;5217;43.960;10.954;2023-04-08T06:16:39;5.47;;;4.97;;
10343;SDS011;5217;43.960;10.954;2023-04-08T06:19:07;6.17;;;5.67;;
10343;SDS011;5217;43.960;10.954;2023-04-08T06:21:36;5.43;;;4.90;;
10343;SDS011;5217;43.960;10.954;2023-04-08T06:24:04;4.20;;;3.80;;
10343;SDS011;5217;43.960;10.954;2023-04-08T06:26:33;4.50;;;4.13;;
10343;SDS011;5217;43.960;10.954;2023-04-08T06:29:01;6.20;;;5.70;;
10343;SDS011;5217;43.960;10.954;2023-04-08T06:31:31;5.63;;;5.13;;
10343;SDS011;5217;43.960;10.954;2023-04-08T06:34:00;5.97;;;5.47;;
10343;SDS011;5217;43.960;10.954;2023-04-08T06:36:28;6.40;;;5.80;;
10343;SDS011;5217;43.960;10.954;2023-04-08T06:38:57;7.60;;;6.90;;
10343;SDS011;5217;43.960;10.954;2023-04-08T06:41:25;7.50;;;6.80;;
10343;SDS011;5217;43.960;10.954;2023-04-08T06:43:53;7.33;;;6.73;;
10343;SDS011;5217;43.960;10.954;2023-04-08T06:46:22;6.90;;;6.40;;
10343;SDS011;5217;43.960;10.954;2023-04-08T06:48:52;6.53;;;6.00;;
10343;SDS011;5217;43.960;10.954;2023-04-08T06:51:21;7.20;;;6.60;;
10343;SDS011;5217;43.960;10.954;2023-04-08T06:53:49;7.80;;;7.10;;
10343;SDS011;5217;43.960;10.954;2023-04-08T06:56:17;7.30;;;6.70;;
10343;SDS011;5217;43.960;10.954;2023-04-08T06:58:47;7.93;;;7.27;;
10343;SDS011;5217;43.960;10.954;2023-04-08T07:01:16;8.87;;;7.97;;
10343;SDS011;5217;43.960;10.954;2023-04-08T07:03:45;10.33;;;9.43;;
10343;SDS011;5217;43.960;10.954;2023-04-08T07:06:15;12.87;;;11.77;;
10343;SDS011;5217;43.960;10.954;2023-04-08T07:08:43;9.33;;;8.53;;
10343;SDS011;5217;43.960;10.954;2023-04-08T07:11:11;8.40;;;7.60;;
10343;SDS011;5217;43.960;10.954;2023-04-08T07:13:40;7.20;;;6.60;;
10343;SDS011;5217;43.960;10.954;2023-04-08T07:16:08;6.90;;;6.30;;
10343;SDS011;5217;43.960;10.954;2023-04-08T07:18:37;6.63;;;6.10;;
10343;SDS011;5217;43.960;10.954;2023-04-08T07:21:06;5.70;;;5.30;;
10343;SDS011;5217;43.960;10.954;2023-04-08T07:23:36;6.23;;;5.57;;
10343;SDS011;5217;43.960;10.954;2023-04-08T07:26:05;6.57;;;5.97;;
10343;SDS011;5217;43.960;10.954;2023-04-08T07:28:33;6.77;;;6.17;;
10343;SDS011;5217;43.960;10.954;2023-04-08T07:31:09;8.33;;;6.73;;
10343;SDS011;5217;43.960;10.954;2023-04-08T07:33:38;11.50;;;10.40;;
10343;SDS011;5217;43.960;10.954;2023-04-08T07:36:07;10.60;;;9.67;;
10343;SDS011;5217;43.960;10.954;2023-04-08T07:38:38;10.40;;;9.40;;
10343;SDS011;5217;43.960;10.954;2023-04-08T07:41:06;9.93;;;9.03;;
10343;SDS011;5217;43.960;10.954;2023-04-08T07:43:35;8.90;;;8.07;;
10343;SDS011;5217;43.960;10.954;2023-04-08T07:46:03;8.97;;;8.17;;
10343;SDS011;5217;43.960;10.954;2023-04-08T07:48:33;8.00;;;7.30;;
10343;SDS011;5217;43.960;10.954;2023-04-08T07:51:02;7.70;;;7.00;;
10343;SDS011;5217;43.960;10.954;2023-04-08T07:53:34;7.17;;;6.57;;
10343;SDS011;5217;43.960;10.954;2023-04-08T07:56:09;7.90;;;6.80;;
10343;SDS011;5217;43.960;10.954;2023-04-08T07:58:39;7.97;;;7.13;;
10343;SDS011;5217;43.960;10.954;2023-04-08T08:01:14;7.70;;;7.00;;
10343;SDS011;5217;43.960;10.954;2023-04-08T08:03:43;7.80;;;7.00;;
10343;SDS011;5217;43.960;10.954;2023-04-08T08:06:13;7.10;;;6.40;;
10343;SDS011;5217;43.960;10.954;2023-04-08T08:08:42;6.80;;;6.20;;
10343;SDS011;5217;43.960;10.954;2023-04-08T08:11:11;7.00;;;6.30;;
10343;SDS011;5217;43.960;10.954;2023-04-08T08:13:40;8.27;;;6.60;;
10343;SDS011;5217;43.960;10.954;2023-04-08T08:16:08;7.33;;;6.57;;
10343;SDS011;5217;43.960;10.954;2023-04-08T08:18:37;5.60;;;4.50;;
10343;SDS011;5217;43.960;10.954;2023-04-08T08:21:06;4.40;;;3.87;;
10343;SDS011;5217;43.960;10.954;2023-04-08T08:23:35;4.63;;;4.23;;
10343;SDS011;5217;43.960;10.954;2023-04-08T08:26:04;3.73;;;3.43;;
10343;SDS011;5217;43.960;10.954;2023-04-08T08:28:37;3.83;;;3.40;;
10343;SDS011;5217;43.960;10.954;2023-04-08T08:31:06;3.50;;;3.20;;
10343;SDS011;5217;43.960;10.954;2023-04-08T08:33:34;3.93;;;3.53;;
10343;SDS011;5217;43.960;10.954;2023-04-08T08:36:02;4.63;;;4.23;;
10343;SDS011;5217;43.960;10.954;2023-04-08T08:38:32;4.10;;;3.67;;
10343;SDS011;5217;43.960;10.954;2023-04-08T08:41:01;4.90;;;3.90;;
10343;SDS011;5217;43.960;10.954;2023-04-08T08:43:30;4.53;;;3.87;;
10343;SDS011;5217;43.960;10.954;2023-04-08T08:46:01;4.97;;;4.47;;
10343;SDS011;5217;43.960;10.954;2023-04-08T08:48:30;6.57;;;4.60;;
10343;SDS011;5217;43.960;10.954;2023-04-08T08:50:59;4.67;;;4.03;;
10343;SDS011;5217;43.960;10.954;2023-04-08T08:53:28;6.00;;;4.63;;
10343;SDS011;5217;43.960;10.954;2023-04-08T08:56:15;4.93;;;4.20;;
10343;SDS011;5217;43.960;10.954;2023-04-08T08:58:44;6.37;;;4.50;;
10343;SDS011;5217;43.960;10.954;2023-04-08T09:01:34;5.57;;;4.57;;
10343;SDS011;5217;43.960;10.954;2023-04-08T09:04:08;4.63;;;4.20;;
10343;SDS011;5217;43.960;10.954;2023-04-08T09:06:38;6.23;;;5.47;;
10343;SDS011;5217;43.960;10.954;2023-04-08T09:09:07;5.63;;;4.97;;
10343;SDS011;5217;43.960;10.954;2023-04-08T09:11:39;5.73;;;4.40;;
10343;SDS011;5217;43.960;10.954;2023-04-08T09:14:18;5.40;;;4.90;;
10343;SDS011;5217;43.960;10.954;2023-04-08T09:16:49;5.47;;;4.27;;
10343;SDS011;5217;43.960;10.954;2023-04-08T09:19:18;4.87;;;4.20;;
10343;SDS011;5217;43.960;10.954;2023-04-08T09:24:33;5.47;;;4.00;;
10343;SDS011;5217;43.960;10.954;2023-04-08T09:27:02;4.73;;;4.20;;
10343;SDS011;5217;43.960;10.954;2023-04-08T09:29:32;5.57;;;3.87;;
10343;SDS011;5217;43.960;10.954;2023-04-08T09:32:05;4.07;;;3.27;;
10343;SDS011;5217;43.960;10.954;2023-04-08T09:34:34;3.70;;;3.33;;
10343;SDS011;5217;43.960;10.954;2023-04-08T09:37:02;4.50;;;3.47;;
10343;SDS011;5217;43.960;10.954;2023-04-08T09:39:31;4.73;;;3.40;;
10343;SDS011;5217;43.960;10.954;2023-04-08T09:41:59;5.43;;;3.20;;
10343;SDS011;5217;43.960;10.954;2023-04-08T09:44:30;3.93;;;3.63;;
10343;SDS011;5217;43.960;10.954;2023-04-08T09:47:04;4.50;;;3.17;;
10343;SDS011;5217;43.960;10.954;2023-04-08T09:49:39;4.90;;;3.30;;
10343;SDS011;5217;43.960;10.954;2023-04-08T09:52:14;4.20;;;3.30;;
10343;SDS011;5217;43.960;10.954;2023-04-08T09:54:46;4.23;;;3.17;;
10343;SDS011;5217;43.960;10.954;2023-04-08T09:57:22;3.10;;;2.80;;
10343;SDS011;5217;43.960;10.954;2023-04-08T09:59:56;3.80;;;2.80;;
10343;SDS011;5217;43.960;10.954;2023-04-08T10:02:33;3.10;;;2.90;;
10343;SDS011;5217;43.960;10.954;2023-04-08T10:05:10;3.67;;;3.38;;
10343;SDS011;5217;43.960;10.954;2023-04-08T10:07:40;6.13;;;5.47;;
10343;SDS011;5217;43.960;10.954;2023-04-08T10:10:09;5.30;;;4.80;;
10343;SDS011;5217;43.960;10.954;2023-04-08T10:12:37;4.05;;;3.70;;
10343;SDS011;5217;43.960;10.954;2023-04-08T10:15:25;3.70;;;3.40;;
10343;SDS011;5217;43.960;10.954;2023-04-08T10:18:28;3.33;;;3.03;;
10343;SDS011;5217;43.960;10.954;2023-04-08T10:20:58;3.63;;;3.33;;
10343;SDS011;5217;43.960;10.954;2023-04-08T10:26:32;3.42;;;3.10;;
10343;SDS011;5217;43.960;10.954;2023-04-08T10:31:59;3.08;;;2.78;;
10343;SDS011;5217;43.960;10.954;2023-04-08T10:34:29;2.92;;;2.60;;
10343;SDS011;5217;43.960;10.954;2023-04-08T10:36:58;3.33;;;3.03;;
10343;SDS011;5217;43.960;10.954;2023-04-08T10:39:27;3.90;;;3.50;;
10343;SDS011;5217;43.960;10.954;2023-04-08T10:41:57;3.83;;;3.50;;
10343;SDS011;5217;43.960;10.954;2023-04-08T10:44:28;3.53;;;3.22;;
10343;SDS011;5217;43.960;10.954;2023-04-08T10:46:56;3.53;;;3.22;;
10343;SDS011;5217;43.960;10.954;2023-04-08T10:49:32;3.70;;;3.33;;
10343;SDS011;5217;43.960;10.954;2023-04-08T10:52:05;2.83;;;2.63;;
10343;SDS011;5217;43.960;10.954;2023-04-08T10:54:35;3.20;;;2.90;;
10343;SDS011;5217;43.960;10.954;2023-04-08T10:57:04;3.50;;;2.80;;
10343;SDS011;5217;43.960;10.954;2023-04-08T10:59:33;3.08;;;2.72;;
10343;SDS011;5217;43.960;10.954;2023-04-08T11:02:02;4.35;;;2.90;;
10343;SDS011;5217;43.960;10.954;2023-04-08T11:04:32;3.35;;;3.05;;
10343;SDS011;5217;43.960;10.954;2023-04-08T11:07:00;3.22;;;2.88;;
10343;SDS011;5217;43.960;10.954;2023-04-08T11:09:34;3.72;;;3.40;;
10343;SDS011;5217;43.960;10.954;2023-04-08T11:12:02;3.55;;;3.25;;
10343;SDS011;5217;43.960;10.954;2023-04-08T11:14:31;3.10;;;2.80;;
10343;SDS011;5217;43.960;10.954;2023-04-08T11:17:00;3.00;;;2.70;;
10343;SDS011;5217;43.960;10.954;2023-04-08T11:19:28;2.85;;;2.53;;
10343;SDS011;5217;43.960;10.954;2023-04-08T11:21:58;2.70;;;2.50;;
10343;SDS011;5217;43.960;10.954;2023-04-08T11:24:27;3.15;;;2.72;;
10343;SDS011;5217;43.960;10.954;2023-04-08T11:26:55;3.33;;;2.58;;
10343;SDS011;5217;43.960;10.954;2023-04-08T11:29:24;4.10;;;3.67;;
10343;SDS011;5217;43.960;10.954;2023-04-08T11:31:53;3.22;;;2.92;;
10343;SDS011;5217;43.960;10.954;2023-04-08T11:34:22;5.63;;;4.93;;
10343;SDS011;5217;43.960;10.954;2023-04-08T11:36:51;4.90;;;4.50;;
10343;SDS011;5217;43.960;10.954;2023-04-08T11:39:22;3.42;;;3.05;;
10343;SDS011;5217;43.960;10.954;2023-04-08T11:41:51;3.80;;;3.10;;
10343;SDS011;5217;43.960;10.954;2023-04-08T11:44:28;3.25;;;2.50;;
10343;SDS011;5217;43.960;10.954;2023-04-08T11:46:57;2.40;;;2.20;;
10343;SDS011;5217;43.960;10.954;2023-04-08T11:49:28;2.55;;;2.35;;
10343;SDS011;5217;43.960;10.954;2023-04-08T11:52:11;2.20;;;2.00;;
10343;SDS011;5217;43.960;10.954;2023-04-08T11:54:41;3.40;;;2.45;;
10343;SDS011;5217;43.960;10.954;2023-04-08T11:57:09;3.80;;;2.70;;
10343;SDS011;5217;43.960;10.954;2023-04-08T11:59:38;3.58;;;2.80;;
10343;SDS011;5217;43.960;10.954;2023-04-08T12:02:06;6.65;;;2.70;;
10343;SDS011;5217;43.960;10.954;2023-04-08T12:04:35;3.78;;;2.65;;
10343;SDS011;5217;43.960;10.954;2023-04-08T12:07:04;3.35;;;2.60;;
10343;SDS011;5217;43.960;10.954;2023-04-08T12:09:33;2.55;;;2.17;;
10343;SDS011;5217;43.960;10.954;2023-04-08T12:12:03;3.00;;;2.22;;
10343;SDS011;5217;43.960;10.954;2023-04-08T12:14:31;2.30;;;2.10;;
10343;SDS011;5217;43.960;10.954;2023-04-08T12:16:59;3.05;;;2.20;;
10343;SDS011;5217;43.960;10.954;2023-04-08T12:19:28;2.88;;;2.40;;
10343;SDS011;5217;43.960;10.954;2023-04-08T12:21:59;4.35;;;2.95;;
10343;SDS011;5217;43.960;10.954;2023-04-08T12:24:27;2.90;;;2.60;;
10343;SDS011;5217;43.960;10.954;2023-04-08T12:26:56;5.45;;;3.50;;
10343;SDS011;5217;43.960;10.954;2023-04-08T12:29:25;3.63;;;2.75;;
10343;SDS011;5217;43.960;10.954;2023-04-08T12:31:54;3.60;;;2.50;;
10343;SDS011;5217;43.960;10.954;2023-04-08T12:34:23;2.20;;;2.00;;
10343;SDS011;5217;43.960;10.954;2023-04-08T12:36:52;2.47;;;2.28;;
10343;SDS011;5217;43.960;10.954;2023-04-08T12:39:20;2.40;;;1.90;;
10343;SDS011;5217;43.960;10.954;2023-04-08T12:41:49;3.05;;;1.90;;
10343;SDS011;5217;43.960;10.954;2023-04-08T12:44:17;2.67;;;2.00;;
10343;SDS011;5217;43.960;10.954;2023-04-08T12:46:47;6.05;;;2.10;;
10343;SDS011;5217;43.960;10.954;2023-04-08T12:49:16;3.47;;;2.50;;
10343;SDS011;5217;43.960;10.954;2023-04-08T12:51:44;4.78;;;4.28;;
10343;SDS011;5217;43.960;10.954;2023-04-08T12:54:13;3.67;;;3.10;;
10343;SDS011;5217;43.960;10.954;2023-04-08T12:56:42;2.83;;;2.38;;
10343;SDS011;5217;43.960;10.954;2023-04-08T12:59:10;2.70;;;2.50;;
10343;SDS011;5217;43.960;10.954;2023-04-08T13:01:39;2.60;;;2.33;;
10343;SDS011;5217;43.960;10.954;2023-04-08T13:04:09;2.45;;;2.10;;
10343;SDS011;5217;43.960;10.954;2023-04-08T13:06:37;3.53;;;1.92;;
10343;SDS011;5217;43.960;10.954;2023-04-08T13:09:06;2.55;;;2.22;;
10343;SDS011;5217;43.960;10.954;2023-04-08T13:11:34;2.28;;;1.90;;
10343;SDS011;5217;43.960;10.954;2023-04-08T13:14:02;2.30;;;2.00;;
10343;SDS011;5217;43.960;10.954;2023-04-08T13:16:31;2.13;;;1.92;;
10343;SDS011;5217;43.960;10.954;2023-04-08T13:18:59;3.05;;;2.22;;
10343;SDS011;5217;43.960;10.954;2023-04-08T13:21:29;2.35;;;2.15;;
10343;SDS011;5217;43.960;10.954;2023-04-08T13:23:57;3.13;;;2.70;;
10343;SDS011;5217;43.960;10.954;2023-04-08T13:26:26;3.22;;;2.60;;
10343;SDS011;5217;43.960;10.954;2023-04-08T13:28:54;3.63;;;2.85;;
10343;SDS011;5217;43.960;10.954;2023-04-08T13:31:23;2.85;;;2.65;;
10343;SDS011;5217;43.960;10.954;2023-04-08T13:33:52;2.38;;;2.17;;
10343;SDS011;5217;43.960;10.954;2023-04-08T13:36:23;3.80;;;2.15;;
10343;SDS011;5217;43.960;10.954;2023-04-08T13:38:55;2.63;;;2.22;;
10343;SDS011;5217;43.960;10.954;2023-04-08T13:41:24;3.28;;;2.55;;
10343;SDS011;5217;43.960;10.954;2023-04-08T13:43:53;7.30;;;2.60;;
10343;SDS011;5217;43.960;10.954;2023-04-08T13:46:22;2.53;;;2.33;;
10343;SDS011;5217;43.960;10.954;2023-04-08T13:48:50;3.60;;;2.40;;
10343;SDS011;5217;43.960;10.954;2023-04-08T13:51:19;3.00;;;2.70;;
10343;SDS011;5217;43.960;10.954;2023-04-08T13:53:47;3.28;;;2.78;;
10343;SDS011;5217;43.960;10.954;2023-04-08T13:56:17;3.35;;;2.22;;
10343;SDS011;5217;43.960;10.954;2023-04-08T13:58:46;2.13;;;1.90;;
10343;SDS011;5217;43.960;10.954;2023-04-08T14:01:22;2.38;;;1.92;;
10343;SDS011;5217;43.960;10.954;2023-04-08T14:03:51;2.25;;;1.77;;
10343;SDS011;5217;43.960;10.954;2023-04-08T14:06:19;3.53;;;1.60;;
10343;SDS011;5217;43.960;10.954;2023-04-08T14:08:48;3.45;;;1.73;;
10343;SDS011;5217;43.960;10.954;2023-04-08T14:11:18;2.92;;;2.33;;
10343;SDS011;5217;43.960;10.954;2023-04-08T14:13:47;3.80;;;3.40;;
10343;SDS011;5217;43.960;10.954;2023-04-08T14:16:15;3.85;;;3.50;;
10343;SDS011;5217;43.960;10.954;2023-04-08T14:18:44;3.22;;;2.92;;
10343;SDS011;5217;43.960;10.954;2023-04-08T14:21:12;3.90;;;3.10;;
10343;SDS011;5217;43.960;10.954;2023-04-08T14:23:41;5.00;;;3.17;;
10343;SDS011;5217;43.960;10.954;2023-04-08T14:26:09;5.05;;;3.47;;
10343;SDS011;5217;43.960;10.954;2023-04-08T14:28:39;4.78;;;3.80;;
10343;SDS011;5217;43.960;10.954;2023-04-08T14:31:08;4.00;;;3.53;;
10343;SDS011;5217;43.960;10.954;2023-04-08T14:33:36;5.15;;;4.22;;
10343;SDS011;5217;43.960;10.954;2023-04-08T14:36:05;6.53;;;3.80;;
10343;SDS011;5217;43.960;10.954;2023-04-08T14:38:33;2.90;;;2.45;;
10343;SDS011;5217;43.960;10.954;2023-04-08T14:41:02;2.55;;;2.30;;
10343;SDS011;5217;43.960;10.954;2023-04-08T14:43:30;5.00;;;3.00;;
10343;SDS011;5217;43.960;10.954;2023-04-08T14:46:00;3.22;;;2.70;;
10343;SDS011;5217;43.960;10.954;2023-04-08T14:48:28;3.53;;;2.60;;
10343;SDS011;5217;43.960;10.954;2023-04-08T14:50:57;2.40;;;2.08;;
10343;SDS011;5217;43.960;10.954;2023-04-08T14:53:25;2.75;;;2.22;;
10343;SDS011;5217;43.960;10.954;2023-04-08T14:55:54;2.80;;;2.05;;
10343;SDS011;5217;43.960;10.954;2023-04-08T14:58:22;2.53;;;2.30;;
10343;SDS011;5217;43.960;10.954;2023-04-08T15:00:50;2.55;;;2.20;;
10343;SDS011;5217;43.960;10.954;2023-04-08T15:03:20;2.25;;;2.05;;
10343;SDS011;5217;43.960;10.954;2023-04-08T15:05:49;2.28;;;2.08;;
10343;SDS011;5217;43.960;10.954;2023-04-08T15:08:17;2.58;;;2.13;;
10343;SDS011;5217;43.960;10.954;2023-04-08T15:10:46;2.22;;;2.03;;